Aeroporto :
LOGIN :

Iscrizione | Disclaimer

   EN    FR    IT 

 










Sommario :    VFR   VFR Marginale   IFR   IFR Intensivo   IFR Molto Intensivo
Visibilità : 
Base nubi : 
>= 8 km
>= 3000ft
5 / 8 km
1000 / 3000 ft
1500m / 5 km
500 / 1000 ft
800 / 1500m
200 / 500 ft
< 800m
< 200 ft
Simboli :   Temporali  Nebbia  Neve Forte  Precipitazioni Forti  Vento > 20 kt
SIGMETs :   Varie  Temporali  Ghiacco  Turbolenza  Onda orograficha  Ceneri Vulcaniche






- Altitudine del aeroporto : 1260 ft
- Codice IATA : LDE


LFBT - Tarbes / Ossun

ULTIMO METAR :
  • 242300Z AUTO 26007KT 2700 BR OVC002 06/06 Q1022 TEMPO 0500 FG VV///

METARs OBSOLETI :
  • 242230Z AUTO 28004KT 230V310 3100 BR VV/// 07/06 Q1023 TEMPO 0500 FG
  • 242200Z AUTO 28008KT 3500 BR BKN002 BKN006 07/06 Q1023 BECMG 9999 NSW
  • 242130Z AUTO 28009KT CAVOK 07/05 Q1023 BECMG OVC004
  • 242100Z AUTO 26007KT CAVOK 09/04 Q1023 BECMG OVC004
  • 242030Z AUTO 26006KT CAVOK 08/03 Q1023 BECMG OVC004

TAF AMD TAF LFBT
Valido dal 24 a 22 ore il 25 a 18 ore UTC


242216Z 2422/2518 VRB02KT 7000 OVC004
PROB40 2422/2506 0500 FG VV///
BECMG 2506/2508 CAVOK
BECMG 2508/2510 27010KT BKN040
TEMPO 2510/2512 -RA OVC015
TEMPO 2512/2518 4000 RA OVC010
TEMPO 2516/2518 29015G30KT



MetMap, La meteo Aeronautica in un colpo d'occhio ! - Copyright ORBIFLY Dicembre 2007 - Disclaimer

ORBIFLY MET'MAP TEAM :

Programmazione e sviluppo : Alexandra Zaïnal
Concezione : Baudouin d'Aumeries
Aiuto per la programmazione : Marc-Olivier Méhu
Supporto tecnico e logistico : Manuel Goepfert
Aiuto per la traduzione : Arnaldo La Scala

Contatto : metmap@orbifly.com




FONTI E CREDITI :

   NOAA